Time;durP1;ratioP1;P1;durP2;ratioP2;P2;SDS_P1;SDS_P2;PMS_P1;PMS_P2;Temp;Humidity;BMP_temperature;BMP_pressure;BME280_temperature;BME280_humidity;BME280_pressure;Samples;Min_cycle;Max_cycle;Signal;HPM_P1;HPM_P2
2021/08/13 00:01:26;;;;;;;5.25;1.60;;;17.40;99.90;;;;;;20654082;28;20057;-44
2021/08/13 00:11:48;;;;;;;5.20;2.20;;;17.30;99.90;;;;;;20658392;28;20040;-44
2021/08/13 00:22:09;;;;;;;5.38;2.20;;;17.20;99.90;;;;;;20658135;28;20049;-44
2021/08/13 00:32:30;;;;;;;6.18;2.40;;;17.00;99.90;;;;;;20660519;28;20046;-44
2021/08/13 00:42:52;;;;;;;5.30;2.13;;;17.00;99.90;;;;;;20681056;28;20130;-44
2021/08/13 00:53:13;;;;;;;4.68;1.80;;;17.00;99.90;;;;;;20684084;28;20049;-44
2021/08/13 01:03:35;;;;;;;3.00;1.70;;;17.00;99.90;;;;;;20681627;28;20046;-44
2021/08/13 01:14:19;;;;;;;6.38;2.83;;;16.90;99.90;;;;;;20679274;28;20042;-44
2021/08/13 01:24:46;;;;;;;5.20;2.47;;;16.80;99.90;;;;;;20684471;28;20557;-44
2021/08/13 01:35:14;;;;;;;5.97;2.20;;;16.80;99.90;;;;;;20660368;28;20450;-44
2021/08/13 01:45:37;;;;;;;4.35;3.05;;;16.70;99.90;;;;;;20642880;28;20342;-44
2021/08/13 01:55:59;;;;;;;8.48;2.95;;;16.90;99.90;;;;;;20652387;28;20157;-44
2021/08/13 02:06:21;;;;;;;5.88;3.13;;;17.00;99.90;;;;;;20627508;28;20065;-44
2021/08/13 02:16:51;;;;;;;7.93;3.67;;;16.90;99.90;;;;;;20630433;28;20053;-44
2021/08/13 02:27:13;;;;;;;10.57;3.92;;;16.80;99.90;;;;;;20622008;28;20340;-44
2021/08/13 02:38:09;;;;;;;12.55;4.22;;;16.80;99.90;;;;;;20619926;28;20485;-44
2021/08/13 02:48:33;;;;;;;12.40;5.25;;;17.10;99.90;;;;;;20629758;28;20046;-44
2021/08/13 02:59:00;;;;;;;12.02;5.18;;;17.10;99.90;;;;;;20661454;28;20454;-44
2021/08/13 03:09:23;;;;;;;8.60;4.55;;;17.00;99.90;;;;;;20657853;28;20037;-44
2021/08/13 03:19:45;;;;;;;9.73;4.70;;;17.00;99.90;;;;;;20661285;28;20486;-44
2021/08/13 03:30:07;;;;;;;10.60;4.63;;;16.90;99.90;;;;;;20618375;28;20517;-44
2021/08/13 03:40:28;;;;;;;8.40;3.88;;;16.80;99.90;;;;;;20641535;28;20057;-44
2021/08/13 03:50:49;;;;;;;9.90;3.92;;;16.70;99.90;;;;;;20662435;28;20042;-44
2021/08/13 04:01:11;;;;;;;10.60;3.72;;;16.70;99.90;;;;;;20654859;28;20490;-44
2021/08/13 04:11:32;;;;;;;7.93;3.53;;;16.60;99.90;;;;;;20627169;28;20414;-44
2021/08/13 04:21:54;;;;;;;13.90;4.70;;;16.60;99.90;;;;;;20646993;28;20449;-44
2021/08/13 04:32:15;;;;;;;10.85;5.07;;;16.50;99.90;;;;;;20646121;28;20046;-44
2021/08/13 04:42:36;;;;;;;11.82;4.50;;;16.50;99.90;;;;;;20640509;28;20049;-44
2021/08/13 04:53:01;;;;;;;11.38;3.83;;;16.70;99.90;;;;;;20643577;28;20454;-44
2021/08/13 05:03:22;;;;;;;14.23;5.10;;;16.80;99.90;;;;;;20649439;28;20077;-44
2021/08/13 05:13:43;;;;;;;8.35;4.05;;;16.80;99.90;;;;;;20654537;28;20062;-44
2021/08/13 05:24:06;;;;;;;7.43;3.47;;;16.90;99.90;;;;;;20648663;28;20030;-46
2021/08/13 05:34:27;;;;;;;10.43;4.40;;;17.10;99.90;;;;;;20646837;28;20065;-44
2021/08/13 05:44:48;;;;;;;9.25;4.20;;;17.40;99.90;;;;;;20649162;28;20628;-44
2021/08/13 05:55:11;;;;;;;12.30;4.13;;;17.30;99.90;;;;;;20640222;28;20046;-44
2021/08/13 06:05:32;;;;;;;6.55;2.75;;;17.50;99.90;;;;;;20637136;28;20080;-46
2021/08/13 06:15:54;;;;;;;8.23;2.55;;;17.60;99.90;;;;;;20637836;28;20049;-44
2021/08/13 06:26:15;;;;;;;7.38;2.85;;;17.50;99.90;;;;;;20637382;28;20065;-44
2021/08/13 06:36:37;;;;;;;12.57;3.28;;;17.70;99.90;;;;;;20646554;28;20068;-44
2021/08/13 06:46:58;;;;;;;8.40;3.15;;;17.80;99.90;;;;;;20639465;28;20046;-44
2021/08/13 06:57:19;;;;;;;5.05;2.45;;;17.80;99.90;;;;;;20641464;28;20691;-44
2021/08/13 07:07:41;;;;;;;6.13;1.95;;;18.00;99.90;;;;;;20642014;28;20037;-44
2021/08/13 07:18:03;;;;;;;6.38;2.65;;;18.30;99.90;;;;;;20638177;28;20039;-44
2021/08/13 07:28:24;;;;;;;11.13;3.08;;;18.50;99.90;;;;;;20637630;28;20053;-44
2021/08/13 07:38:46;;;;;;;7.43;2.50;;;18.60;99.90;;;;;;20640412;28;20046;-44
2021/08/13 07:49:07;;;;;;;4.72;2.05;;;19.10;99.90;;;;;;20640023;28;20080;-44
2021/08/13 07:59:29;;;;;;;5.85;2.15;;;19.30;99.90;;;;;;20645908;28;20061;-44
2021/08/13 08:09:51;;;;;;;7.00;3.10;;;19.40;99.90;;;;;;20651549;28;20485;-44
2021/08/13 08:20:13;;;;;;;6.03;1.50;;;19.60;99.90;;;;;;20645962;28;20130;-44
2021/08/13 08:30:34;;;;;;;3.95;2.00;;;19.40;99.90;;;;;;20648949;28;20049;-44
2021/08/13 08:40:56;;;;;;;4.35;1.35;;;19.80;99.90;;;;;;20646631;28;20399;-44
2021/08/13 08:51:18;;;;;;;3.03;0.90;;;20.20;99.90;;;;;;20645139;28;20103;-44
2021/08/13 09:01:39;;;;;;;3.33;1.65;;;20.20;99.90;;;;;;20656336;28;20065;-44
2021/08/13 09:12:02;;;;;;;4.60;1.50;;;20.60;99.90;;;;;;20660124;28;20520;-46
2021/08/13 09:22:25;;;;;;;4.00;1.15;;;21.20;99.90;;;;;;20661591;28;20081;-44
2021/08/13 09:33:00;;;;;;;3.33;0.93;;;21.00;99.90;;;;;;20629447;28;20548;-44
2021/08/13 09:43:22;;;;;;;2.83;1.02;;;21.10;99.90;;;;;;20661421;28;20045;-45
2021/08/13 09:54:00;;;;;;;2.00;0.90;;;21.10;99.90;;;;;;20654665;28;20046;-45
2021/08/13 10:04:33;;;;;;;2.38;1.38;;;21.30;99.90;;;;;;20666273;28;20557;-44
2021/08/13 10:14:57;;;;;;;6.28;1.25;;;21.40;99.90;;;;;;20660125;28;20121;-44
2021/08/13 10:25:19;;;;;;;4.13;1.30;;;21.80;99.90;;;;;;20661683;28;20049;-45
2021/08/13 10:35:58;;;;;;;1.73;0.45;;;21.70;99.90;;;;;;20671848;28;20042;-44
2021/08/13 10:46:21;;;;;;;2.65;0.82;;;21.70;99.90;;;;;;20676094;28;20053;-44
2021/08/13 10:56:50;;;;;;;2.22;0.70;;;21.90;99.90;;;;;;20662686;28;20045;-44
2021/08/13 11:07:12;;;;;;;4.45;1.10;;;21.80;99.90;;;;;;20659542;28;20034;-44
2021/08/13 11:17:44;;;;;;;4.30;1.00;;;21.80;99.90;;;;;;20580250;28;20129;-44
2021/08/13 11:28:22;;;;;;;12.00;0.57;;;21.90;99.90;;;;;;20621886;28;20530;-44
2021/08/13 11:38:43;;;;;;;;;;;21.50;99.90;;;;;;20606031;28;21394;-44
2021/08/13 11:49:05;;;;;;;1.08;0.45;;;21.60;99.90;;;;;;20617273;28;19928;-44
2021/08/13 11:59:34;;;;;;;2.53;0.80;;;21.90;99.90;;;;;;20612798;28;20585;-44
2021/08/13 12:09:55;;;;;;;4.45;0.68;;;21.90;99.90;;;;;;20613074;28;20038;-44
2021/08/13 12:20:16;;;;;;;3.13;0.50;;;21.70;99.90;;;;;;20583679;28;20382;-44
2021/08/13 12:30:38;;;;;;;2.50;0.50;;;21.90;99.90;;;;;;20613394;28;20050;-44
2021/08/13 12:41:00;;;;;;;6.28;2.70;;;21.70;99.90;;;;;;20624594;28;20042;-44
2021/08/13 12:51:27;;;;;;;10.32;1.45;;;22.00;99.90;;;;;;20614957;28;20132;-45
2021/08/13 13:01:55;;;;;;;3.25;0.55;;;22.00;99.90;;;;;;20639046;28;20077;-44
2021/08/13 13:12:23;;;;;;;0.97;0.37;;;22.10;99.90;;;;;;20649086;28;20490;-44
2021/08/13 13:23:09;;;;;;;6.10;1.08;;;21.80;99.90;;;;;;20648285;28;20086;-43
2021/08/13 13:33:30;;;;;;;4.75;0.80;;;21.50;99.90;;;;;;20639498;28;20066;-44
2021/08/13 13:43:52;;;;;;;2.70;0.40;;;21.40;99.90;;;;;;20646084;28;20046;-44
2021/08/13 13:54:13;;;;;;;2.53;0.50;;;21.60;99.90;;;;;;20607030;28;20129;-44
2021/08/13 14:04:35;;;;;;;3.78;0.50;;;21.80;99.90;;;;;;20648895;28;20634;-44
2021/08/13 14:14:56;;;;;;;2.58;0.43;;;21.80;99.90;;;;;;20644712;28;20374;-44
2021/08/13 14:25:20;;;;;;;5.07;1.08;;;22.60;99.90;;;;;;20617279;28;20486;-44
2021/08/13 14:35:41;;;;;;;3.05;0.85;;;22.50;99.90;;;;;;20661155;28;20042;-44
2021/08/13 14:46:03;;;;;;;3.28;0.52;;;22.10;99.90;;;;;;20668385;28;20038;-44
2021/08/13 14:56:25;;;;;;;2.28;0.30;;;22.20;99.90;;;;;;20668458;28;20081;-44
2021/08/13 15:06:46;;;;;;;7.35;0.85;;;22.30;99.90;;;;;;20671261;28;20073;-43
2021/08/13 15:17:08;;;;;;;2.72;0.57;;;22.00;99.90;;;;;;20663440;28;20054;-44
2021/08/13 15:27:29;;;;;;;5.68;0.60;;;21.60;99.90;;;;;;20639147;28;20038;-44
2021/08/13 15:37:50;;;;;;;1.70;0.55;;;21.70;99.90;;;;;;20655778;28;20066;-44
2021/08/13 15:48:12;;;;;;;2.10;0.50;;;21.70;99.90;;;;;;20663476;28;20046;-44
2021/08/13 15:58:33;;;;;;;2.05;0.80;;;21.60;99.90;;;;;;20660476;28;20117;-44
2021/08/13 16:08:55;;;;;;;6.35;0.90;;;21.30;99.90;;;;;;20661425;28;20049;-44
2021/08/13 16:19:17;;;;;;;3.28;1.05;;;21.30;99.90;;;;;;20663046;28;20379;-44
2021/08/13 16:29:38;;;;;;;1.17;0.45;;;21.20;99.90;;;;;;20660199;28;20042;-44
2021/08/13 16:39:59;;;;;;;9.57;1.00;;;21.10;99.90;;;;;;20664883;28;20034;-44
2021/08/13 16:50:21;;;;;;;3.28;0.60;;;20.90;99.90;;;;;;20659723;28;20141;-44
2021/08/13 17:00:44;;;;;;;1.77;0.55;;;21.00;99.90;;;;;;20664733;28;20056;-44
2021/08/13 17:11:07;;;;;;;3.50;1.13;;;20.90;99.90;;;;;;20668602;28;20042;-44
2021/08/13 17:21:28;;;;;;;1.95;0.63;;;20.70;99.90;;;;;;20672574;28;20048;-44
2021/08/13 17:31:50;;;;;;;2.05;0.77;;;20.60;99.90;;;;;;20689067;28;20041;-44
2021/08/13 17:42:11;;;;;;;7.55;1.13;;;20.50;99.90;;;;;;20703966;28;20049;-44
2021/08/13 17:52:33;;;;;;;4.63;1.20;;;20.30;99.90;;;;;;20660204;28;20082;-44
2021/08/13 18:02:54;;;;;;;2.55;0.60;;;20.20;99.90;;;;;;20633366;28;20057;-44
2021/08/13 18:13:16;;;;;;;5.10;0.90;;;20.10;99.90;;;;;;20664882;28;20504;-44
2021/08/13 18:23:38;;;;;;;8.30;1.33;;;20.20;99.90;;;;;;20664466;28;20418;-44
2021/08/13 18:33:59;;;;;;;4.57;1.23;;;19.90;99.90;;;;;;20655308;28;20040;-44
2021/08/13 18:44:21;;;;;;;3.88;1.52;;;19.80;99.90;;;;;;20647009;28;20054;-44
2021/08/13 18:54:42;;;;;;;4.40;0.90;;;19.60;99.90;;;;;;20627153;28;20045;-44
2021/08/13 19:05:04;;;;;;;5.68;0.70;;;19.30;99.90;;;;;;20624200;28;20047;-44
2021/08/13 19:15:25;;;;;;;3.92;0.77;;;19.20;99.90;;;;;;20625773;28;20046;-44
2021/08/13 19:25:47;;;;;;;2.60;0.68;;;18.90;99.90;;;;;;20627039;28;20042;-43
2021/08/13 19:36:08;;;;;;;4.32;0.82;;;18.70;99.90;;;;;;20661563;28;20413;-44
2021/08/13 19:46:30;;;;;;;4.32;1.02;;;18.70;99.90;;;;;;20665977;28;20072;-44
2021/08/13 19:56:51;;;;;;;5.30;0.82;;;18.40;99.90;;;;;;20635839;28;20058;-44
2021/08/13 20:07:12;;;;;;;8.45;1.00;;;18.10;99.90;;;;;;20645119;28;21829;-45
2021/08/13 20:17:34;;;;;;;6.05;0.88;;;17.90;99.90;;;;;;20631377;28;20385;-44
2021/08/13 20:27:55;;;;;;;5.32;1.38;;;17.80;99.90;;;;;;20664445;28;20038;-44
2021/08/13 20:38:16;;;;;;;4.60;1.27;;;17.80;99.90;;;;;;20631813;28;20047;-44
2021/08/13 20:48:38;;;;;;;6.18;1.55;;;17.80;99.90;;;;;;20625583;28;20057;-44
2021/08/13 20:58:59;;;;;;;7.53;0.85;;;17.70;99.90;;;;;;20640857;28;20038;-44
2021/08/13 21:09:20;;;;;;;3.42;0.90;;;17.50;99.90;;;;;;20638050;28;20046;-44
2021/08/13 21:19:45;;;;;;;3.17;1.02;;;17.40;99.90;;;;;;20646098;28;20232;-44
2021/08/13 21:30:07;;;;;;;3.42;0.70;;;17.40;99.90;;;;;;20642491;28;20675;-44
2021/08/13 21:40:29;;;;;;;3.08;1.05;;;17.30;99.90;;;;;;20657330;28;20122;-44
2021/08/13 21:50:50;;;;;;;4.90;1.30;;;17.20;99.90;;;;;;20652395;28;20179;-44
2021/08/13 22:01:14;;;;;;;3.30;0.90;;;17.20;99.90;;;;;;20635921;28;20490;-44
2021/08/13 22:11:36;;;;;;;4.00;1.67;;;17.00;99.90;;;;;;20669929;28;20038;-44
2021/08/13 22:21:58;;;;;;;5.20;1.17;;;16.90;99.90;;;;;;20673223;28;20069;-44
2021/08/13 22:32:19;;;;;;;2.30;1.10;;;16.80;99.90;;;;;;20675296;28;20033;-44
2021/08/13 22:42:40;;;;;;;2.03;0.80;;;16.60;99.90;;;;;;20639438;28;20078;-45
2021/08/13 22:53:02;;;;;;;7.32;1.50;;;16.50;99.90;;;;;;20620176;28;20046;-44
2021/08/13 23:03:23;;;;;;;3.97;1.27;;;16.50;99.90;;;;;;20639487;28;20057;-45
2021/08/13 23:13:45;;;;;;;4.97;1.67;;;16.40;99.90;;;;;;20626083;28;20042;-44
2021/08/13 23:24:06;;;;;;;5.25;0.80;;;16.40;99.90;;;;;;20620369;28;20089;-44
2021/08/13 23:34:31;;;;;;;5.97;1.23;;;16.30;99.90;;;;;;20618455;28;20049;-44
2021/08/13 23:44:52;;;;;;;8.07;1.75;;;16.30;99.90;;;;;;20620668;28;20050;-44
2021/08/13 23:55:14;;;;;;;3.13;0.90;;;16.30;99.90;;;;;;20617245;28;20158;-44
